sensor_id;sensor_type;location;lat;lon;timestamp;P1;durP1;ratioP1;P2;durP2;ratioP2
52730;SDS011;38624;53.242;6.974;2023-01-01T00:03:12;22.77;;;9.32;;
52730;SDS011;38624;53.242;6.974;2023-01-01T00:05:38;14.63;;;7.15;;
52730;SDS011;38624;53.242;6.974;2023-01-01T00:08:04;16.70;;;8.40;;
52730;SDS011;38624;53.242;6.974;2023-01-01T00:10:30;21.73;;;6.97;;
52730;SDS011;38624;53.242;6.974;2023-01-01T00:12:57;16.80;;;6.70;;
52730;SDS011;38624;53.242;6.974;2023-01-01T00:15:23;17.85;;;7.75;;
52730;SDS011;38624;53.242;6.974;2023-01-01T00:17:50;21.10;;;9.07;;
52730;SDS011;38624;53.242;6.974;2023-01-01T00:20:16;21.90;;;10.55;;
52730;SDS011;38624;53.242;6.974;2023-01-01T00:22:41;18.87;;;8.40;;
52730;SDS011;38624;53.242;6.974;2023-01-01T00:25:07;22.20;;;10.93;;
52730;SDS011;38624;53.242;6.974;2023-01-01T00:27:35;23.70;;;11.10;;
52730;SDS011;38624;53.242;6.974;2023-01-01T00:30:00;25.63;;;11.32;;
52730;SDS011;38624;53.242;6.974;2023-01-01T00:32:26;27.83;;;12.93;;
52730;SDS011;38624;53.242;6.974;2023-01-01T00:34:52;26.73;;;14.07;;
52730;SDS011;38624;53.242;6.974;2023-01-01T00:37:17;24.60;;;13.02;;
52730;SDS011;38624;53.242;6.974;2023-01-01T00:39:43;23.60;;;14.10;;
52730;SDS011;38624;53.242;6.974;2023-01-01T00:42:09;27.52;;;16.00;;
52730;SDS011;38624;53.242;6.974;2023-01-01T00:44:35;32.90;;;19.23;;
52730;SDS011;38624;53.242;6.974;2023-01-01T00:47:00;29.98;;;16.42;;
52730;SDS011;38624;53.242;6.974;2023-01-01T00:49:26;28.25;;;16.30;;
52730;SDS011;38624;53.242;6.974;2023-01-01T00:51:52;27.73;;;16.08;;
52730;SDS011;38624;53.242;6.974;2023-01-01T00:54:17;21.40;;;12.70;;
52730;SDS011;38624;53.242;6.974;2023-01-01T00:56:43;27.63;;;15.00;;
52730;SDS011;38624;53.242;6.974;2023-01-01T00:59:09;26.90;;;13.70;;
52730;SDS011;38624;53.242;6.974;2023-01-01T01:01:35;29.65;;;15.30;;
52730;SDS011;38624;53.242;6.974;2023-01-01T01:04:01;27.73;;;12.43;;
52730;SDS011;38624;53.242;6.974;2023-01-01T01:08:53;23.55;;;14.00;;
52730;SDS011;38624;53.242;6.974;2023-01-01T01:11:20;28.85;;;15.07;;
52730;SDS011;38624;53.242;6.974;2023-01-01T01:13:48;32.78;;;15.80;;
52730;SDS011;38624;53.242;6.974;2023-01-01T01:16:16;24.98;;;16.80;;
52730;SDS011;38624;53.242;6.974;2023-01-01T01:18:44;30.13;;;18.05;;
52730;SDS011;38624;53.242;6.974;2023-01-01T01:21:13;29.40;;;17.58;;
52730;SDS011;38624;53.242;6.974;2023-01-01T01:23:40;34.63;;;19.25;;
52730;SDS011;38624;53.242;6.974;2023-01-01T01:26:13;31.15;;;16.60;;
52730;SDS011;38624;53.242;6.974;2023-01-01T01:28:40;35.78;;;20.38;;
52730;SDS011;38624;53.242;6.974;2023-01-01T01:31:07;30.27;;;16.42;;
52730;SDS011;38624;53.242;6.974;2023-01-01T01:33:33;24.30;;;16.95;;
52730;SDS011;38624;53.242;6.974;2023-01-01T01:36:00;37.08;;;20.25;;
52730;SDS011;38624;53.242;6.974;2023-01-01T01:38:26;35.80;;;17.08;;
52730;SDS011;38624;53.242;6.974;2023-01-01T01:40:52;28.70;;;18.30;;
52730;SDS011;38624;53.242;6.974;2023-01-01T01:43:22;35.95;;;21.42;;
52730;SDS011;38624;53.242;6.974;2023-01-01T01:46:42;32.05;;;19.48;;
52730;SDS011;38624;53.242;6.974;2023-01-01T01:51:42;28.35;;;17.17;;
52730;SDS011;38624;53.242;6.974;2023-01-01T01:54:13;36.65;;;21.60;;
52730;SDS011;38624;53.242;6.974;2023-01-01T01:56:51;39.28;;;26.00;;
52730;SDS011;38624;53.242;6.974;2023-01-01T01:59:22;36.20;;;19.67;;
52730;SDS011;38624;53.242;6.974;2023-01-01T02:01:51;41.05;;;24.75;;
52730;SDS011;38624;53.242;6.974;2023-01-01T02:04:17;47.25;;;29.08;;
52730;SDS011;38624;53.242;6.974;2023-01-01T02:06:44;46.88;;;24.65;;
52730;SDS011;38624;53.242;6.974;2023-01-01T02:09:09;36.00;;;21.67;;
52730;SDS011;38624;53.242;6.974;2023-01-01T02:11:35;49.17;;;32.00;;
52730;SDS011;38624;53.242;6.974;2023-01-01T02:14:01;50.33;;;29.80;;
52730;SDS011;38624;53.242;6.974;2023-01-01T02:30:58;48.92;;;30.55;;
52730;SDS011;38624;53.242;6.974;2023-01-01T02:33:25;39.05;;;24.95;;
52730;SDS011;38624;53.242;6.974;2023-01-01T02:38:27;43.95;;;25.58;;
52730;SDS011;38624;53.242;6.974;2023-01-01T02:40:55;44.63;;;26.80;;
52730;SDS011;38624;53.242;6.974;2023-01-01T02:43:26;31.42;;;17.13;;
52730;SDS011;38624;53.242;6.974;2023-01-01T02:45:52;34.13;;;17.83;;
52730;SDS011;38624;53.242;6.974;2023-01-01T02:48:39;31.55;;;19.73;;
52730;SDS011;38624;53.242;6.974;2023-01-01T02:54:04;31.05;;;20.17;;
52730;SDS011;38624;53.242;6.974;2023-01-01T02:59:22;32.75;;;17.45;;
52730;SDS011;38624;53.242;6.974;2023-01-01T03:08:24;32.15;;;15.77;;
52730;SDS011;38624;53.242;6.974;2023-01-01T03:11:13;30.10;;;14.13;;
52730;SDS011;38624;53.242;6.974;2023-01-01T03:19:27;20.27;;;11.83;;
52730;SDS011;38624;53.242;6.974;2023-01-01T03:22:00;34.50;;;12.02;;
52730;SDS011;38624;53.242;6.974;2023-01-01T03:27:09;21.70;;;9.60;;
52730;SDS011;38624;53.242;6.974;2023-01-01T03:29:41;21.35;;;10.63;;
52730;SDS011;38624;53.242;6.974;2023-01-01T03:32:09;17.52;;;9.23;;
52730;SDS011;38624;53.242;6.974;2023-01-01T03:34:40;23.67;;;11.40;;
52730;SDS011;38624;53.242;6.974;2023-01-01T03:37:12;18.70;;;8.63;;
52730;SDS011;38624;53.242;6.974;2023-01-01T03:39:46;22.25;;;8.77;;
52730;SDS011;38624;53.242;6.974;2023-01-01T03:42:38;14.38;;;7.80;;
52730;SDS011;38624;53.242;6.974;2023-01-01T03:45:25;12.93;;;6.35;;
52730;SDS011;38624;53.242;6.974;2023-01-01T03:47:55;20.92;;;8.43;;
52730;SDS011;38624;53.242;6.974;2023-01-01T03:50:22;22.00;;;10.57;;
52730;SDS011;38624;53.242;6.974;2023-01-01T03:53:02;16.52;;;7.97;;
52730;SDS011;38624;53.242;6.974;2023-01-01T03:55:38;21.45;;;10.10;;
52730;SDS011;38624;53.242;6.974;2023-01-01T03:58:12;27.38;;;12.00;;
52730;SDS011;38624;53.242;6.974;2023-01-01T04:01:03;21.45;;;12.32;;
52730;SDS011;38624;53.242;6.974;2023-01-01T04:03:45;31.30;;;14.98;;
52730;SDS011;38624;53.242;6.974;2023-01-01T04:06:12;21.33;;;12.18;;
52730;SDS011;38624;53.242;6.974;2023-01-01T04:08:39;23.60;;;9.77;;
52730;SDS011;38624;53.242;6.974;2023-01-01T04:11:10;23.17;;;12.32;;
52730;SDS011;38624;53.242;6.974;2023-01-01T04:14:00;26.02;;;14.23;;
52730;SDS011;38624;53.242;6.974;2023-01-01T04:16:26;27.45;;;14.70;;
52730;SDS011;38624;53.242;6.974;2023-01-01T04:18:52;24.60;;;12.57;;
52730;SDS011;38624;53.242;6.974;2023-01-01T04:21:17;25.92;;;12.52;;
52730;SDS011;38624;53.242;6.974;2023-01-01T04:23:43;17.48;;;9.38;;
52730;SDS011;38624;53.242;6.974;2023-01-01T04:26:12;21.67;;;8.02;;
52730;SDS011;38624;53.242;6.974;2023-01-01T04:28:39;19.17;;;9.05;;
52730;SDS011;38624;53.242;6.974;2023-01-01T04:31:06;17.15;;;7.25;;
52730;SDS011;38624;53.242;6.974;2023-01-01T04:33:32;19.02;;;7.57;;
52730;SDS011;38624;53.242;6.974;2023-01-01T04:36:04;18.67;;;7.43;;
52730;SDS011;38624;53.242;6.974;2023-01-01T04:38:35;14.68;;;6.68;;
52730;SDS011;38624;53.242;6.974;2023-01-01T04:41:02;15.20;;;6.25;;
52730;SDS011;38624;53.242;6.974;2023-01-01T04:43:28;13.20;;;5.80;;
52730;SDS011;38624;53.242;6.974;2023-01-01T04:45:58;17.90;;;6.95;;
52730;SDS011;38624;53.242;6.974;2023-01-01T04:48:25;13.27;;;6.25;;
52730;SDS011;38624;53.242;6.974;2023-01-01T04:50:58;19.85;;;6.70;;
52730;SDS011;38624;53.242;6.974;2023-01-01T04:53:30;16.95;;;7.13;;
52730;SDS011;38624;53.242;6.974;2023-01-01T04:56:03;16.88;;;6.15;;
52730;SDS011;38624;53.242;6.974;2023-01-01T04:58:30;12.00;;;4.80;;
52730;SDS011;38624;53.242;6.974;2023-01-01T05:00:56;18.45;;;7.05;;
52730;SDS011;38624;53.242;6.974;2023-01-01T05:03:22;14.73;;;5.70;;
52730;SDS011;38624;53.242;6.974;2023-01-01T05:05:57;18.30;;;6.17;;
52730;SDS011;38624;53.242;6.974;2023-01-01T05:08:30;17.17;;;5.60;;
52730;SDS011;38624;53.242;6.974;2023-01-01T05:13:23;13.25;;;4.95;;
52730;SDS011;38624;53.242;6.974;2023-01-01T05:15:49;13.75;;;5.70;;
52730;SDS011;38624;53.242;6.974;2023-01-01T05:18:15;21.02;;;4.97;;
52730;SDS011;38624;53.242;6.974;2023-01-01T05:20:40;18.08;;;6.93;;
52730;SDS011;38624;53.242;6.974;2023-01-01T05:23:06;16.92;;;5.38;;
52730;SDS011;38624;53.242;6.974;2023-01-01T05:25:32;18.83;;;4.25;;
52730;SDS011;38624;53.242;6.974;2023-01-01T05:27:57;11.18;;;3.78;;
52730;SDS011;38624;53.242;6.974;2023-01-01T05:30:23;13.40;;;4.40;;
52730;SDS011;38624;53.242;6.974;2023-01-01T05:32:49;12.00;;;4.43;;
52730;SDS011;38624;53.242;6.974;2023-01-01T05:35:14;15.82;;;4.65;;
52730;SDS011;38624;53.242;6.974;2023-01-01T05:37:40;11.23;;;3.88;;
52730;SDS011;38624;53.242;6.974;2023-01-01T05:40:06;11.57;;;3.20;;
52730;SDS011;38624;53.242;6.974;2023-01-01T05:42:32;7.90;;;3.63;;
52730;SDS011;38624;53.242;6.974;2023-01-01T05:44:58;10.50;;;3.58;;
52730;SDS011;38624;53.242;6.974;2023-01-01T05:47:24;14.73;;;3.65;;
52730;SDS011;38624;53.242;6.974;2023-01-01T05:49:49;11.05;;;3.22;;
52730;SDS011;38624;53.242;6.974;2023-01-01T05:52:15;7.78;;;3.13;;
52730;SDS011;38624;53.242;6.974;2023-01-01T05:54:41;10.75;;;3.72;;
52730;SDS011;38624;53.242;6.974;2023-01-01T05:57:06;13.85;;;3.53;;
52730;SDS011;38624;53.242;6.974;2023-01-01T05:59:32;7.72;;;2.80;;
52730;SDS011;38624;53.242;6.974;2023-01-01T06:01:58;12.77;;;3.17;;
52730;SDS011;38624;53.242;6.974;2023-01-01T06:04:23;9.63;;;2.83;;
52730;SDS011;38624;53.242;6.974;2023-01-01T06:06:49;7.80;;;2.75;;
52730;SDS011;38624;53.242;6.974;2023-01-01T06:09:15;10.10;;;3.20;;
52730;SDS011;38624;53.242;6.974;2023-01-01T06:11:40;9.48;;;2.83;;
52730;SDS011;38624;53.242;6.974;2023-01-01T06:14:06;5.07;;;2.08;;
52730;SDS011;38624;53.242;6.974;2023-01-01T06:16:32;9.90;;;2.47;;
52730;SDS011;38624;53.242;6.974;2023-01-01T06:18:57;8.57;;;2.28;;
52730;SDS011;38624;53.242;6.974;2023-01-01T06:21:24;6.47;;;1.80;;
52730;SDS011;38624;53.242;6.974;2023-01-01T06:26:20;6.45;;;2.13;;
52730;SDS011;38624;53.242;6.974;2023-01-01T06:28:50;10.30;;;2.75;;
52730;SDS011;38624;53.242;6.974;2023-01-01T06:31:17;7.03;;;1.88;;
52730;SDS011;38624;53.242;6.974;2023-01-01T06:33:44;7.90;;;2.33;;
52730;SDS011;38624;53.242;6.974;2023-01-01T06:36:11;7.13;;;1.90;;
52730;SDS011;38624;53.242;6.974;2023-01-01T06:38:39;6.65;;;1.35;;
52730;SDS011;38624;53.242;6.974;2023-01-01T06:41:15;4.75;;;1.63;;
52730;SDS011;38624;53.242;6.974;2023-01-01T06:43:43;6.15;;;1.23;;
52730;SDS011;38624;53.242;6.974;2023-01-01T06:48:42;4.75;;;1.70;;
52730;SDS011;38624;53.242;6.974;2023-01-01T06:51:12;5.05;;;1.48;;
52730;SDS011;38624;53.242;6.974;2023-01-01T06:53:43;7.00;;;2.25;;
52730;SDS011;38624;53.242;6.974;2023-01-01T06:56:09;7.00;;;1.40;;
52730;SDS011;38624;53.242;6.974;2023-01-01T06:58:35;9.45;;;1.02;;
52730;SDS011;38624;53.242;6.974;2023-01-01T07:01:02;5.18;;;1.30;;
52730;SDS011;38624;53.242;6.974;2023-01-01T07:03:29;6.97;;;1.33;;
52730;SDS011;38624;53.242;6.974;2023-01-01T07:05:55;7.30;;;1.08;;
52730;SDS011;38624;53.242;6.974;2023-01-01T07:08:20;7.20;;;1.85;;
52730;SDS011;38624;53.242;6.974;2023-01-01T07:10:46;3.53;;;1.05;;
52730;SDS011;38624;53.242;6.974;2023-01-01T07:13:12;8.73;;;1.52;;
52730;SDS011;38624;53.242;6.974;2023-01-01T07:15:37;5.72;;;1.60;;
52730;SDS011;38624;53.242;6.974;2023-01-01T07:18:03;6.20;;;1.17;;
52730;SDS011;38624;53.242;6.974;2023-01-01T07:20:29;12.05;;;2.22;;
52730;SDS011;38624;53.242;6.974;2023-01-01T07:22:54;5.75;;;1.38;;
52730;SDS011;38624;53.242;6.974;2023-01-01T07:25:20;6.33;;;1.47;;
52730;SDS011;38624;53.242;6.974;2023-01-01T07:27:46;8.13;;;2.20;;
52730;SDS011;38624;53.242;6.974;2023-01-01T07:30:12;9.20;;;1.80;;
52730;SDS011;38624;53.242;6.974;2023-01-01T07:32:37;8.45;;;1.73;;
52730;SDS011;38624;53.242;6.974;2023-01-01T07:35:03;5.47;;;1.27;;
52730;SDS011;38624;53.242;6.974;2023-01-01T07:37:29;6.37;;;1.40;;
52730;SDS011;38624;53.242;6.974;2023-01-01T07:39:55;11.38;;;2.13;;
52730;SDS011;38624;53.242;6.974;2023-01-01T07:42:20;10.40;;;2.33;;
52730;SDS011;38624;53.242;6.974;2023-01-01T07:44:46;12.90;;;2.17;;
52730;SDS011;38624;53.242;6.974;2023-01-01T07:47:15;8.73;;;2.17;;
52730;SDS011;38624;53.242;6.974;2023-01-01T07:49:43;7.30;;;1.35;;
52730;SDS011;38624;53.242;6.974;2023-01-01T07:52:08;9.05;;;1.80;;
52730;SDS011;38624;53.242;6.974;2023-01-01T07:54:34;11.65;;;2.08;;
52730;SDS011;38624;53.242;6.974;2023-01-01T07:57:00;12.05;;;2.13;;
52730;SDS011;38624;53.242;6.974;2023-01-01T07:59:25;12.73;;;1.83;;
52730;SDS011;38624;53.242;6.974;2023-01-01T08:01:51;9.02;;;1.70;;
52730;SDS011;38624;53.242;6.974;2023-01-01T08:04:16;9.60;;;1.58;;
52730;SDS011;38624;53.242;6.974;2023-01-01T08:06:42;7.85;;;1.73;;
52730;SDS011;38624;53.242;6.974;2023-01-01T08:09:08;9.75;;;2.03;;
52730;SDS011;38624;53.242;6.974;2023-01-01T08:11:34;13.90;;;2.75;;
52730;SDS011;38624;53.242;6.974;2023-01-01T08:14:00;6.05;;;1.67;;
52730;SDS011;38624;53.242;6.974;2023-01-01T08:16:26;11.68;;;1.98;;
52730;SDS011;38624;53.242;6.974;2023-01-01T08:18:51;15.32;;;2.40;;
52730;SDS011;38624;53.242;6.974;2023-01-01T08:21:17;10.50;;;2.13;;
52730;SDS011;38624;53.242;6.974;2023-01-01T08:23:42;10.75;;;2.25;;
52730;SDS011;38624;53.242;6.974;2023-01-01T08:26:12;9.82;;;1.98;;
52730;SDS011;38624;53.242;6.974;2023-01-01T08:28:43;10.30;;;2.35;;
52730;SDS011;38624;53.242;6.974;2023-01-01T08:31:08;11.82;;;2.10;;
52730;SDS011;38624;53.242;6.974;2023-01-01T08:33:34;11.48;;;2.63;;
52730;SDS011;38624;53.242;6.974;2023-01-01T08:36:00;15.32;;;1.90;;
52730;SDS011;38624;53.242;6.974;2023-01-01T08:38:26;16.83;;;2.53;;
52730;SDS011;38624;53.242;6.974;2023-01-01T08:40:52;13.02;;;2.15;;
52730;SDS011;38624;53.242;6.974;2023-01-01T08:43:17;14.38;;;2.60;;
52730;SDS011;38624;53.242;6.974;2023-01-01T08:45:43;13.93;;;2.20;;
52730;SDS011;38624;53.242;6.974;2023-01-01T08:48:09;15.13;;;2.53;;
52730;SDS011;38624;53.242;6.974;2023-01-01T08:50:35;14.38;;;2.30;;
52730;SDS011;38624;53.242;6.974;2023-01-01T08:53:01;14.57;;;2.28;;
52730;SDS011;38624;53.242;6.974;2023-01-01T08:55:27;15.95;;;2.92;;
52730;SDS011;38624;53.242;6.974;2023-01-01T08:57:53;11.98;;;2.38;;
52730;SDS011;38624;53.242;6.974;2023-01-01T09:00:19;13.68;;;2.38;;
52730;SDS011;38624;53.242;6.974;2023-01-01T09:02:45;15.55;;;2.75;;
52730;SDS011;38624;53.242;6.974;2023-01-01T09:05:10;15.95;;;2.30;;
52730;SDS011;38624;53.242;6.974;2023-01-01T09:07:36;14.75;;;2.90;;
52730;SDS011;38624;53.242;6.974;2023-01-01T09:10:02;14.80;;;2.07;;
52730;SDS011;38624;53.242;6.974;2023-01-01T09:12:28;20.90;;;2.58;;
52730;SDS011;38624;53.242;6.974;2023-01-01T09:14:54;19.08;;;2.75;;
52730;SDS011;38624;53.242;6.974;2023-01-01T09:17:20;10.17;;;1.97;;
52730;SDS011;38624;53.242;6.974;2023-01-01T09:19:46;14.40;;;2.80;;
52730;SDS011;38624;53.242;6.974;2023-01-01T09:22:12;10.98;;;2.05;;
52730;SDS011;38624;53.242;6.974;2023-01-01T09:24:37;15.50;;;2.95;;
52730;SDS011;38624;53.242;6.974;2023-01-01T09:27:03;13.93;;;2.58;;
52730;SDS011;38624;53.242;6.974;2023-01-01T09:29:29;20.42;;;2.97;;
52730;SDS011;38624;53.242;6.974;2023-01-01T09:31:54;9.45;;;2.33;;
52730;SDS011;38624;53.242;6.974;2023-01-01T09:34:20;15.20;;;2.50;;
52730;SDS011;38624;53.242;6.974;2023-01-01T09:36:46;11.13;;;2.42;;
52730;SDS011;38624;53.242;6.974;2023-01-01T09:39:13;14.73;;;2.72;;
52730;SDS011;38624;53.242;6.974;2023-01-01T09:47:02;17.00;;;2.67;;
52730;SDS011;38624;53.242;6.974;2023-01-01T09:49:36;12.20;;;2.58;;
52730;SDS011;38624;53.242;6.974;2023-01-01T09:52:05;10.90;;;2.70;;
52730;SDS011;38624;53.242;6.974;2023-01-01T09:54:52;13.60;;;3.10;;
52730;SDS011;38624;53.242;6.974;2023-01-01T09:57:23;16.52;;;3.03;;
52730;SDS011;38624;53.242;6.974;2023-01-01T09:59:53;14.55;;;2.42;;
52730;SDS011;38624;53.242;6.974;2023-01-01T10:12:50;17.10;;;2.80;;
52730;SDS011;38624;53.242;6.974;2023-01-01T10:15:33;11.13;;;1.95;;
52730;SDS011;38624;53.242;6.974;2023-01-01T10:18:05;12.40;;;2.83;;
52730;SDS011;38624;53.242;6.974;2023-01-01T10:20:45;14.10;;;2.28;;
52730;SDS011;38624;53.242;6.974;2023-01-01T10:23:23;15.60;;;2.85;;
52730;SDS011;38624;53.242;6.974;2023-01-01T10:25:53;17.40;;;2.40;;
52730;SDS011;38624;53.242;6.974;2023-01-01T10:31:26;17.58;;;2.50;;
52730;SDS011;38624;53.242;6.974;2023-01-01T10:33:54;13.55;;;2.70;;
52730;SDS011;38624;53.242;6.974;2023-01-01T10:36:20;16.75;;;2.95;;
52730;SDS011;38624;53.242;6.974;2023-01-01T10:38:49;15.10;;;2.42;;
52730;SDS011;38624;53.242;6.974;2023-01-01T10:41:15;20.27;;;3.03;;
52730;SDS011;38624;53.242;6.974;2023-01-01T10:43:41;9.13;;;2.00;;
52730;SDS011;38624;53.242;6.974;2023-01-01T10:48:40;10.73;;;1.98;;
52730;SDS011;38624;53.242;6.974;2023-01-01T10:51:37;16.77;;;2.85;;
52730;SDS011;38624;53.242;6.974;2023-01-01T10:56:58;9.50;;;2.03;;
52730;SDS011;38624;53.242;6.974;2023-01-01T10:59:37;12.63;;;2.75;;
52730;SDS011;38624;53.242;6.974;2023-01-01T11:02:14;15.10;;;2.67;;
52730;SDS011;38624;53.242;6.974;2023-01-01T11:04:40;14.75;;;2.15;;
52730;SDS011;38624;53.242;6.974;2023-01-01T11:07:06;14.45;;;2.47;;
52730;SDS011;38624;53.242;6.974;2023-01-01T11:09:32;13.53;;;2.60;;
52730;SDS011;38624;53.242;6.974;2023-01-01T11:12:06;12.18;;;1.95;;
52730;SDS011;38624;53.242;6.974;2023-01-01T11:14:42;10.20;;;1.83;;
52730;SDS011;38624;53.242;6.974;2023-01-01T11:17:19;9.48;;;2.47;;
52730;SDS011;38624;53.242;6.974;2023-01-01T11:19:46;11.82;;;1.85;;
52730;SDS011;38624;53.242;6.974;2023-01-01T11:22:36;12.02;;;2.47;;
52730;SDS011;38624;53.242;6.974;2023-01-01T11:25:23;9.43;;;1.98;;
52730;SDS011;38624;53.242;6.974;2023-01-01T11:36:35;7.57;;;1.70;;
52730;SDS011;38624;53.242;6.974;2023-01-01T11:41:46;6.05;;;1.38;;
52730;SDS011;38624;53.242;6.974;2023-01-01T11:44:24;9.75;;;1.70;;
52730;SDS011;38624;53.242;6.974;2023-01-01T11:46:53;12.57;;;2.30;;
52730;SDS011;38624;53.242;6.974;2023-01-01T11:49:20;16.38;;;3.00;;
52730;SDS011;38624;53.242;6.974;2023-01-01T11:51:48;12.52;;;1.70;;
52730;SDS011;38624;53.242;6.974;2023-01-01T11:54:33;16.45;;;2.25;;
52730;SDS011;38624;53.242;6.974;2023-01-01T11:57:17;12.10;;;2.00;;
52730;SDS011;38624;53.242;6.974;2023-01-01T12:00:00;17.60;;;2.25;;
52730;SDS011;38624;53.242;6.974;2023-01-01T12:02:33;13.23;;;2.13;;
52730;SDS011;38624;53.242;6.974;2023-01-01T12:05:09;11.85;;;1.95;;
52730;SDS011;38624;53.242;6.974;2023-01-01T12:07:42;13.73;;;2.28;;
52730;SDS011;38624;53.242;6.974;2023-01-01T12:10:20;8.98;;;2.47;;
52730;SDS011;38624;53.242;6.974;2023-01-01T12:12:56;10.93;;;2.03;;
52730;SDS011;38624;53.242;6.974;2023-01-01T12:15:35;12.07;;;2.00;;
52730;SDS011;38624;53.242;6.974;2023-01-01T12:18:03;12.25;;;2.38;;
52730;SDS011;38624;53.242;6.974;2023-01-01T12:20:44;11.80;;;2.28;;
52730;SDS011;38624;53.242;6.974;2023-01-01T12:23:19;11.95;;;2.03;;
52730;SDS011;38624;53.242;6.974;2023-01-01T12:25:45;11.90;;;2.08;;
52730;SDS011;38624;53.242;6.974;2023-01-01T12:34:18;11.27;;;2.17;;
52730;SDS011;38624;53.242;6.974;2023-01-01T12:37:14;10.38;;;2.25;;
52730;SDS011;38624;53.242;6.974;2023-01-01T12:48:38;10.48;;;1.90;;
52730;SDS011;38624;53.242;6.974;2023-01-01T12:58:47;10.10;;;2.00;;
52730;SDS011;38624;53.242;6.974;2023-01-01T13:01:26;15.98;;;2.30;;
52730;SDS011;38624;53.242;6.974;2023-01-01T13:03:59;12.48;;;2.50;;
52730;SDS011;38624;53.242;6.974;2023-01-01T13:06:47;17.38;;;3.15;;
52730;SDS011;38624;53.242;6.974;2023-01-01T13:09:28;14.27;;;2.10;;
52730;SDS011;38624;53.242;6.974;2023-01-01T13:12:02;14.45;;;2.05;;
52730;SDS011;38624;53.242;6.974;2023-01-01T13:14:49;15.32;;;2.33;;
52730;SDS011;38624;53.242;6.974;2023-01-01T13:17:22;11.38;;;2.42;;
52730;SDS011;38624;53.242;6.974;2023-01-01T13:46:42;15.65;;;2.45;;
52730;SDS011;38624;53.242;6.974;2023-01-01T13:49:57;13.05;;;2.42;;
52730;SDS011;38624;53.242;6.974;2023-01-01T14:01:17;14.13;;;2.65;;
52730;SDS011;38624;53.242;6.974;2023-01-01T14:06:35;9.45;;;2.45;;
52730;SDS011;38624;53.242;6.974;2023-01-01T14:09:06;17.70;;;2.90;;
52730;SDS011;38624;53.242;6.974;2023-01-01T14:11:38;13.45;;;2.40;;
52730;SDS011;38624;53.242;6.974;2023-01-01T14:14:18;15.95;;;2.60;;
52730;SDS011;38624;53.242;6.974;2023-01-01T14:16:53;14.93;;;2.63;;
52730;SDS011;38624;53.242;6.974;2023-01-01T14:19:21;11.68;;;2.80;;
52730;SDS011;38624;53.242;6.974;2023-01-01T14:24:14;16.17;;;2.53;;
52730;SDS011;38624;53.242;6.974;2023-01-01T14:26:43;11.90;;;2.15;;
52730;SDS011;38624;53.242;6.974;2023-01-01T14:29:12;12.75;;;2.28;;
52730;SDS011;38624;53.242;6.974;2023-01-01T14:32:02;11.55;;;2.42;;
52730;SDS011;38624;53.242;6.974;2023-01-01T14:34:56;13.57;;;2.35;;
52730;SDS011;38624;53.242;6.974;2023-01-01T14:37:24;13.52;;;2.65;;
52730;SDS011;38624;53.242;6.974;2023-01-01T14:40:06;11.90;;;2.40;;
52730;SDS011;38624;53.242;6.974;2023-01-01T14:42:41;11.57;;;2.38;;
52730;SDS011;38624;53.242;6.974;2023-01-01T14:45:12;13.88;;;2.63;;
52730;SDS011;38624;53.242;6.974;2023-01-01T14:47:40;13.20;;;2.00;;
52730;SDS011;38624;53.242;6.974;2023-01-01T14:50:15;13.77;;;2.20;;
52730;SDS011;38624;53.242;6.974;2023-01-01T14:52:45;13.70;;;2.58;;
52730;SDS011;38624;53.242;6.974;2023-01-01T14:55:20;19.05;;;3.20;;
52730;SDS011;38624;53.242;6.974;2023-01-01T14:57:47;14.48;;;2.88;;
52730;SDS011;38624;53.242;6.974;2023-01-01T15:00:20;9.73;;;2.00;;
52730;SDS011;38624;53.242;6.974;2023-01-01T15:02:48;12.75;;;2.20;;
52730;SDS011;38624;53.242;6.974;2023-01-01T15:05:35;15.88;;;2.78;;
52730;SDS011;38624;53.242;6.974;2023-01-01T15:08:01;10.45;;;2.50;;
52730;SDS011;38624;53.242;6.974;2023-01-01T15:10:29;14.00;;;2.97;;
52730;SDS011;38624;53.242;6.974;2023-01-01T15:12:58;14.55;;;2.53;;
52730;SDS011;38624;53.242;6.974;2023-01-01T15:15:44;14.40;;;2.92;;
52730;SDS011;38624;53.242;6.974;2023-01-01T15:21:03;17.45;;;3.67;;
52730;SDS011;38624;53.242;6.974;2023-01-01T15:23:59;14.48;;;2.47;;
52730;SDS011;38624;53.242;6.974;2023-01-01T15:26:28;13.38;;;2.30;;
52730;SDS011;38624;53.242;6.974;2023-01-01T15:28:58;15.68;;;3.00;;
52730;SDS011;38624;53.242;6.974;2023-01-01T15:31:34;14.60;;;3.17;;
52730;SDS011;38624;53.242;6.974;2023-01-01T15:34:05;14.23;;;2.95;;
52730;SDS011;38624;53.242;6.974;2023-01-01T15:36:36;11.75;;;2.28;;
52730;SDS011;38624;53.242;6.974;2023-01-01T15:39:02;12.57;;;3.13;;
52730;SDS011;38624;53.242;6.974;2023-01-01T15:41:39;14.82;;;2.80;;
52730;SDS011;38624;53.242;6.974;2023-01-01T15:46:45;12.70;;;3.30;;
52730;SDS011;38624;53.242;6.974;2023-01-01T15:49:22;13.45;;;3.38;;
52730;SDS011;38624;53.242;6.974;2023-01-01T15:51:53;17.85;;;3.30;;
52730;SDS011;38624;53.242;6.974;2023-01-01T15:54:22;13.85;;;3.38;;
52730;SDS011;38624;53.242;6.974;2023-01-01T15:56:48;12.10;;;3.28;;
52730;SDS011;38624;53.242;6.974;2023-01-01T16:01:42;12.10;;;3.08;;
52730;SDS011;38624;53.242;6.974;2023-01-01T16:04:09;9.20;;;2.80;;
52730;SDS011;38624;53.242;6.974;2023-01-01T16:06:45;13.82;;;3.10;;
52730;SDS011;38624;53.242;6.974;2023-01-01T16:09:17;12.68;;;3.60;;
52730;SDS011;38624;53.242;6.974;2023-01-01T16:11:43;18.80;;;3.28;;
52730;SDS011;38624;53.242;6.974;2023-01-01T16:14:10;10.35;;;2.78;;
52730;SDS011;38624;53.242;6.974;2023-01-01T16:16:41;15.25;;;3.72;;
52730;SDS011;38624;53.242;6.974;2023-01-01T16:19:13;15.63;;;3.65;;
52730;SDS011;38624;53.242;6.974;2023-01-01T16:21:41;9.90;;;3.10;;
52730;SDS011;38624;53.242;6.974;2023-01-01T16:24:14;10.77;;;1.95;;
52730;SDS011;38624;53.242;6.974;2023-01-01T16:26:42;11.57;;;2.83;;
52730;SDS011;38624;53.242;6.974;2023-01-01T16:29:07;16.88;;;3.65;;
52730;SDS011;38624;53.242;6.974;2023-01-01T16:31:33;16.00;;;3.08;;
52730;SDS011;38624;53.242;6.974;2023-01-01T16:33:59;13.13;;;2.92;;
52730;SDS011;38624;53.242;6.974;2023-01-01T16:36:26;12.95;;;3.22;;
52730;SDS011;38624;53.242;6.974;2023-01-01T16:38:53;16.63;;;3.50;;
52730;SDS011;38624;53.242;6.974;2023-01-01T16:41:21;20.23;;;3.63;;
52730;SDS011;38624;53.242;6.974;2023-01-01T16:43:47;10.68;;;2.75;;
52730;SDS011;38624;53.242;6.974;2023-01-01T16:46:13;15.15;;;3.42;;
52730;SDS011;38624;53.242;6.974;2023-01-01T16:48:39;15.13;;;2.73;;
52730;SDS011;38624;53.242;6.974;2023-01-01T16:51:06;17.40;;;2.92;;
52730;SDS011;38624;53.242;6.974;2023-01-01T16:53:37;13.27;;;3.13;;
52730;SDS011;38624;53.242;6.974;2023-01-01T16:56:03;15.60;;;3.42;;
52730;SDS011;38624;53.242;6.974;2023-01-01T16:58:29;11.02;;;2.65;;
52730;SDS011;38624;53.242;6.974;2023-01-01T17:00:58;13.65;;;3.17;;
52730;SDS011;38624;53.242;6.974;2023-01-01T17:03:24;12.93;;;3.58;;
52730;SDS011;38624;53.242;6.974;2023-01-01T17:05:50;17.17;;;4.35;;
52730;SDS011;38624;53.242;6.974;2023-01-01T17:08:16;15.00;;;3.65;;
52730;SDS011;38624;53.242;6.974;2023-01-01T17:10:41;13.82;;;3.17;;
52730;SDS011;38624;53.242;6.974;2023-01-01T17:13:07;13.55;;;2.83;;
52730;SDS011;38624;53.242;6.974;2023-01-01T17:15:33;13.77;;;2.80;;
52730;SDS011;38624;53.242;6.974;2023-01-01T17:17:58;18.23;;;3.55;;
52730;SDS011;38624;53.242;6.974;2023-01-01T17:20:24;16.58;;;3.28;;
52730;SDS011;38624;53.242;6.974;2023-01-01T17:22:51;19.23;;;2.92;;
52730;SDS011;38624;53.242;6.974;2023-01-01T17:25:16;20.88;;;3.70;;
52730;SDS011;38624;53.242;6.974;2023-01-01T17:27:42;19.50;;;4.28;;